Time;durP1;ratioP1;P1;durP2;ratioP2;P2;SDS_P1;SDS_P2;PMS_P1;PMS_P2;Temp;Humidity;BMP_temperature;BMP_pressure;BME280_temperature;BME280_humidity;BME280_pressure;Samples;Min_cycle;Max_cycle;Signal;HPM_P1;HPM_P2
2024/02/18 00:01:48;;;;;;;3.20;3.10;;;8.70;99.90;;;;;;5106335;27;20168;-77
2024/02/18 00:04:14;;;;;;;0.30;0.20;;;8.70;99.90;;;;;;5106519;27;20188;-77
2024/02/18 00:06:39;;;;;;;0.30;0.20;;;8.70;99.90;;;;;;5106281;28;20208;-75
2024/02/18 00:09:05;;;;;;;0.30;0.20;;;8.70;99.90;;;;;;5104889;28;20206;-76
2024/02/18 00:11:31;;;;;;;0.63;0.63;;;8.70;99.90;;;;;;5103760;27;20737;-76
2024/02/18 00:13:57;;;;;;;0.30;0.20;;;8.70;99.90;;;;;;5083071;28;20974;-76
2024/02/18 00:16:23;;;;;;;0.30;0.20;;;8.70;99.90;;;;;;5084641;28;20216;-77
2024/02/18 00:18:49;;;;;;;0.30;0.20;;;8.60;99.90;;;;;;5084337;28;20200;-77
2024/02/18 00:21:16;;;;;;;0.30;0.20;;;8.60;99.90;;;;;;5084189;28;20177;-77
2024/02/18 00:23:42;;;;;;;0.30;0.30;;;8.60;99.90;;;;;;5082734;28;20196;-77
2024/02/18 00:26:07;;;;;;;0.37;0.30;;;8.60;99.90;;;;;;5084599;28;20176;-77
2024/02/18 00:28:33;;;;;;;0.30;0.20;;;8.60;99.90;;;;;;5083863;28;20208;-76
2024/02/18 00:30:59;;;;;;;0.30;0.20;;;8.60;99.90;;;;;;5083893;28;20601;-77
2024/02/18 00:33:25;;;;;;;0.30;0.20;;;8.60;99.90;;;;;;5083999;28;20219;-78
2024/02/18 00:35:51;;;;;;;0.30;0.20;;;8.60;99.90;;;;;;5083602;28;20248;-77
2024/02/18 00:38:16;;;;;;;0.30;0.20;;;8.60;99.90;;;;;;5083130;28;20220;-77
2024/02/18 00:40:42;;;;;;;0.30;0.20;;;8.50;99.90;;;;;;5081810;28;20541;-76
2024/02/18 00:43:08;;;;;;;0.30;0.27;;;8.50;99.90;;;;;;5083570;28;20200;-76
2024/02/18 00:45:33;;;;;;;0.30;0.20;;;8.50;99.90;;;;;;5084482;28;20233;-76
2024/02/18 00:47:59;;;;;;;0.30;0.20;;;8.40;99.90;;;;;;5085424;28;20212;-76
2024/02/18 00:50:24;;;;;;;0.30;0.20;;;8.40;99.90;;;;;;5084247;28;20211;-76
2024/02/18 00:52:50;;;;;;;0.30;0.20;;;8.40;99.90;;;;;;5085462;28;20189;-77
2024/02/18 00:55:16;;;;;;;0.30;0.20;;;8.40;99.90;;;;;;5083971;28;20530;-77
2024/02/18 00:57:41;;;;;;;0.30;0.30;;;8.40;99.90;;;;;;5083498;28;20386;-76
2024/02/18 01:00:10;;;;;;;0.30;0.20;;;8.30;99.90;;;;;;5085276;28;20173;-75
2024/02/18 01:02:35;;;;;;;0.30;0.20;;;8.40;99.90;;;;;;5085652;28;20607;-76
2024/02/18 01:05:01;;;;;;;0.40;0.40;;;8.40;99.90;;;;;;5084034;28;20184;-78
2024/02/18 01:07:27;;;;;;;0.30;0.30;;;8.40;99.90;;;;;;5085288;28;20180;-76
2024/02/18 01:09:52;;;;;;;0.30;0.20;;;8.40;99.90;;;;;;5085247;28;20164;-76
2024/02/18 01:12:18;;;;;;;1.17;1.17;;;8.40;99.90;;;;;;5083799;28;20246;-76
2024/02/18 01:14:44;;;;;;;1.35;1.27;;;8.30;99.90;;;;;;5085534;28;20466;-76
2024/02/18 01:17:10;;;;;;;3.70;3.40;;;8.40;99.90;;;;;;5085655;28;20216;-77
2024/02/18 01:19:36;;;;;;;0.30;0.20;;;8.40;99.90;;;;;;5089499;28;20476;-77
2024/02/18 01:22:03;;;;;;;0.30;0.20;;;8.40;99.90;;;;;;5089406;28;20400;-76
2024/02/18 01:24:29;;;;;;;0.30;0.25;;;8.40;99.90;;;;;;5089304;28;20196;-76
2024/02/18 01:26:54;;;;;;;0.30;0.30;;;8.40;99.90;;;;;;5089647;28;20188;-77
2024/02/18 01:29:22;;;;;;;0.30;0.20;;;8.40;99.90;;;;;;5087537;28;20249;-76
2024/02/18 01:31:47;;;;;;;0.57;0.57;;;8.50;99.90;;;;;;5087800;28;20657;-78
2024/02/18 01:34:13;;;;;;;0.30;0.20;;;8.50;99.90;;;;;;5087797;28;20204;-76
2024/02/18 01:36:39;;;;;;;3.90;3.60;;;8.50;99.90;;;;;;5089240;28;20181;-78
2024/02/18 01:39:04;;;;;;;0.30;0.20;;;8.60;99.90;;;;;;5089078;28;20201;-77
2024/02/18 01:41:30;;;;;;;0.40;0.40;;;8.60;99.90;;;;;;5088854;28;20188;-78
2024/02/18 01:43:56;;;;;;;0.30;0.20;;;8.60;99.90;;;;;;5086215;28;20736;-77
2024/02/18 01:46:22;;;;;;;0.30;0.20;;;8.70;99.90;;;;;;5089194;28;20211;-77
2024/02/18 01:48:48;;;;;;;0.30;0.20;;;8.70;99.90;;;;;;5088832;28;20723;-76
2024/02/18 01:51:14;;;;;;;0.30;0.20;;;8.70;99.90;;;;;;5087681;28;20417;-77
2024/02/18 01:53:41;;;;;;;0.30;0.22;;;8.70;99.90;;;;;;5088689;28;20249;-77
2024/02/18 01:56:08;;;;;;;2.85;2.75;;;8.70;99.90;;;;;;5088863;28;20172;-77
2024/02/18 01:58:34;;;;;;;0.30;0.20;;;8.70;99.90;;;;;;5087991;28;20247;-78
2024/02/18 02:01:02;;;;;;;0.30;0.20;;;8.80;99.90;;;;;;5088491;28;20199;-76
2024/02/18 02:03:28;;;;;;;0.30;0.20;;;8.80;99.90;;;;;;5088636;28;20752;-78
2024/02/18 02:05:54;;;;;;;0.32;0.20;;;8.90;99.90;;;;;;5088562;28;20229;-78
2024/02/18 02:08:22;;;;;;;0.63;0.63;;;8.90;99.90;;;;;;5088160;28;20200;-76
2024/02/18 02:10:50;;;;;;;0.30;0.20;;;8.90;99.90;;;;;;5088104;28;20232;-76
2024/02/18 02:13:16;;;;;;;3.45;3.25;;;9.00;99.90;;;;;;5087050;28;20197;-78
2024/02/18 02:15:41;;;;;;;0.30;0.20;;;9.00;99.90;;;;;;5088613;28;20173;-78
2024/02/18 02:18:07;;;;;;;0.40;0.40;;;9.00;99.90;;;;;;5086613;28;20515;-76
2024/02/18 02:20:33;;;;;;;0.30;0.20;;;9.00;99.90;;;;;;5088183;28;20375;-77
2024/02/18 02:22:59;;;;;;;0.50;0.47;;;9.00;99.90;;;;;;5086793;28;20200;-77
2024/02/18 02:25:24;;;;;;;3.23;3.13;;;9.10;99.90;;;;;;5088483;28;20172;-78
2024/02/18 02:28:17;;;;;;;0.30;0.30;;;9.10;99.90;;;;;;5087269;28;20232;-77
2024/02/18 02:30:43;;;;;;;0.65;0.65;;;9.10;99.90;;;;;;5088267;28;20164;-77
2024/02/18 02:33:08;;;;;;;0.30;0.20;;;9.10;99.90;;;;;;5086261;28;20685;-77
2024/02/18 02:35:34;;;;;;;0.30;0.20;;;9.10;99.90;;;;;;5086701;28;20176;-77
2024/02/18 02:38:00;;;;;;;0.40;0.40;;;9.10;99.90;;;;;;5087808;28;20219;-76
2024/02/18 02:40:26;;;;;;;0.30;0.20;;;9.00;99.90;;;;;;5087994;28;20672;-77
2024/02/18 02:42:52;;;;;;;0.30;0.20;;;9.00;99.90;;;;;;5087341;28;20200;-77
2024/02/18 02:45:18;;;;;;;0.30;0.20;;;9.00;99.90;;;;;;5085942;28;20946;-78
2024/02/18 02:47:43;;;;;;;0.30;0.20;;;9.00;99.90;;;;;;5087715;28;20216;-77
2024/02/18 02:50:09;;;;;;;0.30;0.20;;;9.00;99.90;;;;;;5087906;28;20683;-76
2024/02/18 02:52:38;;;;;;;0.30;0.30;;;9.00;99.90;;;;;;5087670;28;20282;-76
2024/02/18 02:55:05;;;;;;;0.30;0.20;;;9.00;99.90;;;;;;5087701;28;20176;-76
2024/02/18 02:57:30;;;;;;;0.40;0.30;;;9.00;99.90;;;;;;5087341;28;20223;-75
2024/02/18 02:59:56;;;;;;;0.30;0.20;;;9.00;99.90;;;;;;5085694;28;20649;-77
2024/02/18 03:02:22;;;;;;;0.47;0.47;;;9.00;99.90;;;;;;5086524;28;20772;-77
2024/02/18 03:04:48;;;;;;;5.73;5.17;;;8.90;99.90;;;;;;5085931;28;20176;-76
2024/02/18 03:07:13;;;;;;;0.30;0.20;;;8.90;99.90;;;;;;5087395;28;20484;-76
2024/02/18 03:09:39;;;;;;;0.30;0.20;;;8.90;99.90;;;;;;5085755;28;20169;-76
2024/02/18 03:12:05;;;;;;;0.30;0.20;;;8.80;99.90;;;;;;5087500;28;20329;-77
2024/02/18 03:14:31;;;;;;;0.30;0.30;;;8.80;99.90;;;;;;5086994;28;20199;-77
2024/02/18 03:16:58;;;;;;;0.30;0.20;;;8.70;99.90;;;;;;5087268;28;20544;-78
2024/02/18 03:19:23;;;;;;;0.30;0.30;;;8.60;99.90;;;;;;5085646;28;20204;-77
2024/02/18 03:21:49;;;;;;;0.30;0.20;;;8.60;99.90;;;;;;5085566;28;20657;-76
2024/02/18 03:24:15;;;;;;;4.63;4.43;;;8.60;99.90;;;;;;5085674;28;20207;-76
2024/02/18 03:26:41;;;;;;;0.30;0.20;;;8.60;99.90;;;;;;5087060;28;20199;-77
2024/02/18 03:29:09;;;;;;;0.30;0.20;;;8.50;99.90;;;;;;5087011;28;20196;-77
2024/02/18 03:31:35;;;;;;;0.30;0.20;;;8.50;99.90;;;;;;5087129;28;20183;-77
2024/02/18 03:34:01;;;;;;;0.30;0.20;;;8.50;99.90;;;;;;5086705;28;20654;-77
2024/02/18 03:36:26;;;;;;;0.30;0.23;;;8.50;99.90;;;;;;5085355;28;20585;-76
2024/02/18 03:38:52;;;;;;;0.30;0.20;;;8.40;99.90;;;;;;5086124;28;20463;-77
2024/02/18 03:41:18;;;;;;;6.03;4.67;;;8.40;99.90;;;;;;5084720;28;20173;-77
2024/02/18 03:43:43;;;;;;;0.30;0.27;;;8.40;99.90;;;;;;5086509;28;20196;-78
2024/02/18 03:46:09;;;;;;;0.30;0.20;;;8.40;99.90;;;;;;5086187;28;20176;-78
2024/02/18 03:48:34;;;;;;;0.30;0.30;;;8.40;99.90;;;;;;5086101;28;20196;-76
2024/02/18 03:51:00;;;;;;;0.30;0.20;;;8.40;99.90;;;;;;5085262;28;20176;-77
2024/02/18 03:53:26;;;;;;;0.30;0.20;;;8.40;99.90;;;;;;5086301;28;20588;-78
2024/02/18 03:55:51;;;;;;;0.40;0.30;;;8.50;99.90;;;;;;5086112;28;20173;-75
2024/02/18 03:58:17;;;;;;;0.30;0.20;;;8.40;99.90;;;;;;5086135;28;20228;-78
2024/02/18 04:00:46;;;;;;;0.30;0.20;;;8.40;99.90;;;;;;5086199;28;20176;-76
2024/02/18 04:03:13;;;;;;;0.30;0.20;;;8.40;99.90;;;;;;5084631;28;20246;-77
2024/02/18 04:05:40;;;;;;;2.05;1.95;;;8.40;99.90;;;;;;5086318;28;20168;-76
2024/02/18 04:08:05;;;;;;;0.30;0.20;;;8.40;99.90;;;;;;5085852;28;20203;-77
2024/02/18 04:10:31;;;;;;;0.77;0.77;;;8.40;99.90;;;;;;5084975;28;20560;-75
2024/02/18 04:12:57;;;;;;;0.30;0.20;;;8.40;99.90;;;;;;5085833;28;20353;-77
2024/02/18 04:15:22;;;;;;;0.30;0.30;;;8.50;99.90;;;;;;5086475;28;20221;-77
2024/02/18 04:17:48;;;;;;;0.30;0.20;;;8.50;99.90;;;;;;5084250;28;20273;-77
2024/02/18 04:20:14;;;;;;;0.30;0.23;;;8.50;99.90;;;;;;5085982;28;20794;-77
2024/02/18 04:22:42;;;;;;;0.30;0.20;;;8.50;99.90;;;;;;5085903;28;20429;-76
2024/02/18 04:25:08;;;;;;;0.30;0.20;;;8.40;99.90;;;;;;5085660;28;20183;-77
2024/02/18 04:27:34;;;;;;;0.30;0.20;;;8.50;99.90;;;;;;5086017;28;20184;-77
2024/02/18 04:30:00;;;;;;;1.70;1.60;;;8.50;99.90;;;;;;5085513;28;20517;-77
2024/02/18 04:32:25;;;;;;;0.30;0.20;;;8.50;99.90;;;;;;5085821;28;20172;-78
2024/02/18 04:34:51;;;;;;;0.30;0.20;;;8.50;99.90;;;;;;5085774;28;20661;-77
2024/02/18 04:37:17;;;;;;;0.30;0.30;;;8.50;99.90;;;;;;5085788;28;20226;-76
2024/02/18 04:39:43;;;;;;;0.93;0.90;;;8.50;99.90;;;;;;5085784;28;20176;-77
2024/02/18 04:42:08;;;;;;;2.23;1.53;;;8.50;99.90;;;;;;5085545;28;20177;-77
2024/02/18 04:44:34;;;;;;;2.53;2.10;;;8.50;99.90;;;;;;5085756;28;20658;-77
2024/02/18 04:47:00;;;;;;;0.30;0.30;;;8.60;99.90;;;;;;5085696;28;20268;-76
2024/02/18 04:49:25;;;;;;;3.80;3.60;;;8.60;99.90;;;;;;5084733;28;20197;-76
2024/02/18 04:51:51;;;;;;;0.80;0.80;;;8.60;99.90;;;;;;5085843;28;20176;-77
2024/02/18 04:54:17;;;;;;;0.30;0.20;;;8.60;99.90;;;;;;5085331;28;20212;-77
2024/02/18 04:56:42;;;;;;;0.30;0.20;;;8.60;99.90;;;;;;5084188;28;20263;-76
2024/02/18 04:59:08;;;;;;;0.30;0.20;;;8.60;99.90;;;;;;5083662;28;20200;-77
2024/02/18 05:01:34;;;;;;;0.30;0.20;;;8.60;99.90;;;;;;5085379;28;20181;-77
2024/02/18 05:03:59;;;;;;;0.30;0.20;;;8.60;99.90;;;;;;5084985;28;20192;-77
2024/02/18 05:06:25;;;;;;;0.83;0.83;;;8.60;99.90;;;;;;5084073;28;20177;-76
2024/02/18 05:08:51;;;;;;;2.50;2.40;;;8.60;99.90;;;;;;5085314;28;20188;-76
2024/02/18 05:11:17;;;;;;;0.30;0.30;;;8.60;99.90;;;;;;5083889;28;20262;-77
2024/02/18 05:13:42;;;;;;;0.30;0.20;;;8.60;99.90;;;;;;5085398;28;20196;-79
2024/02/18 05:16:11;;;;;;;0.83;0.83;;;8.60;99.90;;;;;;5085512;28;20259;-78
2024/02/18 05:18:37;;;;;;;0.30;0.30;;;8.60;99.90;;;;;;5084954;28;20227;-78
2024/02/18 05:21:04;;;;;;;0.75;0.75;;;8.60;99.90;;;;;;5085014;28;20180;-79
2024/02/18 05:23:36;;;;;;;0.30;0.20;;;8.50;99.90;;;;;;5084995;28;20234;-79
2024/02/18 05:26:02;;;;;;;0.30;0.30;;;8.60;99.90;;;;;;5084851;28;20157;-79
2024/02/18 05:28:30;;;;;;;0.30;0.30;;;8.60;99.90;;;;;;5084961;28;20204;-78
2024/02/18 05:30:57;;;;;;;0.30;0.20;;;8.60;99.90;;;;;;5083736;28;20597;-78
2024/02/18 05:33:23;;;;;;;0.30;0.20;;;8.50;99.90;;;;;;5083593;28;20547;-78
2024/02/18 05:35:49;;;;;;;0.30;0.20;;;8.50;99.90;;;;;;5083535;28;20192;-76
2024/02/18 05:38:15;;;;;;;0.30;0.20;;;8.50;99.90;;;;;;5084698;28;20286;-77
2024/02/18 05:40:40;;;;;;;0.30;0.20;;;8.50;99.90;;;;;;5085219;28;20172;-78
2024/02/18 05:43:06;;;;;;;0.60;0.60;;;8.50;99.90;;;;;;5084414;28;20196;-77
2024/02/18 05:45:32;;;;;;;0.50;0.50;;;8.50;99.90;;;;;;5085191;28;20168;-77
2024/02/18 05:47:57;;;;;;;0.30;0.20;;;8.50;99.90;;;;;;5084726;28;20196;-77
2024/02/18 05:50:23;;;;;;;0.57;0.57;;;8.60;99.90;;;;;;5084535;28;20217;-76
2024/02/18 05:52:49;;;;;;;0.30;0.20;;;8.60;99.90;;;;;;5083061;28;20196;-78
2024/02/18 05:55:14;;;;;;;2.80;2.70;;;8.60;99.90;;;;;;5084645;28;20641;-79
2024/02/18 05:57:40;;;;;;;0.30;0.20;;;8.60;99.90;;;;;;5083156;28;20310;-79
2024/02/18 06:00:06;;;;;;;0.30;0.20;;;8.60;99.90;;;;;;5084375;28;20180;-79
2024/02/18 06:02:33;;;;;;;0.40;0.35;;;8.60;99.90;;;;;;5084876;28;20397;-78
2024/02/18 06:04:58;;;;;;;0.30;0.20;;;8.60;99.90;;;;;;5088357;28;20172;-78
2024/02/18 06:07:24;;;;;;;0.30;0.20;;;8.70;99.90;;;;;;5088825;28;20561;-78
2024/02/18 06:09:50;;;;;;;0.30;0.20;;;8.70;99.90;;;;;;5088094;28;20164;-77
2024/02/18 06:12:16;;;;;;;0.30;0.20;;;8.70;99.90;;;;;;5088369;28;20231;-76
2024/02/18 06:14:42;;;;;;;0.32;0.20;;;8.70;99.90;;;;;;5086636;28;20200;-76
2024/02/18 06:17:08;;;;;;;9.00;8.33;;;8.70;99.90;;;;;;5088271;28;20576;-77
2024/02/18 06:19:34;;;;;;;0.30;0.30;;;8.70;99.90;;;;;;5088422;28;20257;-77
2024/02/18 06:21:59;;;;;;;0.30;0.20;;;8.70;99.90;;;;;;5088149;28;20165;-77
2024/02/18 06:24:27;;;;;;;11.00;3.83;;;8.70;99.90;;;;;;5088070;28;20250;-76
2024/02/18 06:26:54;;;;;;;0.30;0.20;;;8.70;99.90;;;;;;5086909;28;20172;-79
2024/02/18 06:29:19;;;;;;;0.93;0.90;;;8.80;99.90;;;;;;5087663;28;20200;-80
2024/02/18 06:31:45;;;;;;;0.30;0.20;;;8.80;99.90;;;;;;5088328;28;20272;-79
2024/02/18 06:34:11;;;;;;;0.30;0.20;;;8.80;99.90;;;;;;5087884;28;20196;-78
2024/02/18 06:36:38;;;;;;;0.30;0.20;;;8.90;99.90;;;;;;5088165;28;20237;-77
2024/02/18 06:39:04;;;;;;;9.40;3.00;;;8.90;99.90;;;;;;5087862;28;20208;-76
2024/02/18 06:41:31;;;;;;;0.30;0.20;;;8.90;99.90;;;;;;5086463;28;20188;-77
2024/02/18 06:43:57;;;;;;;0.85;0.85;;;8.90;99.90;;;;;;5087905;28;20299;-79
2024/02/18 06:46:22;;;;;;;0.40;0.37;;;8.90;99.90;;;;;;5087808;28;20252;-77
2024/02/18 06:48:51;;;;;;;0.40;0.20;;;8.90;99.90;;;;;;5087544;28;20821;-78
2024/02/18 06:51:19;;;;;;;0.30;0.20;;;9.00;99.90;;;;;;5087757;28;20688;-80
2024/02/18 06:53:45;;;;;;;2.40;2.30;;;9.00;99.90;;;;;;5087651;28;20241;-79
2024/02/18 06:56:11;;;;;;;1.07;1.07;;;9.00;99.90;;;;;;5085522;28;20176;-79
2024/02/18 06:58:36;;;;;;;0.30;0.20;;;9.00;99.90;;;;;;5085664;28;20224;-78
2024/02/18 07:01:02;;;;;;;0.30;0.20;;;9.10;99.90;;;;;;5088137;28;20225;-80
2024/02/18 07:03:29;;;;;;;0.67;0.67;;;9.10;99.90;;;;;;5106933;28;20203;-78
2024/02/18 07:05:54;;;;;;;0.50;0.50;;;9.20;99.90;;;;;;5106711;28;20198;-75
2024/02/18 07:08:20;;;;;;;2.60;2.50;;;9.20;99.90;;;;;;5107604;28;20822;-79
2024/02/18 07:10:46;;;;;;;0.30;0.20;;;9.20;99.90;;;;;;5107471;27;20272;-78
2024/02/18 07:13:11;;;;;;;2.10;1.67;;;9.30;99.90;;;;;;5107143;28;20294;-79
2024/02/18 07:15:37;;;;;;;0.30;0.20;;;9.30;99.90;;;;;;5105454;28;20168;-77
2024/02/18 07:18:04;;;;;;;0.30;0.20;;;9.40;99.90;;;;;;5107023;28;20265;-76
2024/02/18 07:20:30;;;;;;;1.20;1.20;;;9.40;99.90;;;;;;5107464;28;20255;-76
2024/02/18 07:22:57;;;;;;;0.30;0.20;;;9.50;99.90;;;;;;5107007;28;20278;-77
2024/02/18 07:25:23;;;;;;;0.77;0.77;;;9.40;99.90;;;;;;5106281;28;20378;-77
2024/02/18 07:27:48;;;;;;;3.07;2.97;;;9.50;99.90;;;;;;5121236;27;20734;-79
2024/02/18 07:30:14;;;;;;;0.40;0.20;;;9.50;99.90;;;;;;5105416;28;20262;-80
2024/02/18 07:32:40;;;;;;;0.30;0.20;;;9.50;99.90;;;;;;5105469;28;20581;-79
2024/02/18 07:35:06;;;;;;;1.67;1.60;;;9.50;99.90;;;;;;5121272;27;20179;-79
2024/02/18 07:37:31;;;;;;;0.30;0.20;;;9.50;99.90;;;;;;5105474;28;20222;-79
2024/02/18 07:39:57;;;;;;;2.60;2.40;;;9.50;99.90;;;;;;5121616;27;20495;-79
2024/02/18 07:42:23;;;;;;;0.60;0.60;;;9.50;99.90;;;;;;5107078;28;20177;-79
2024/02/18 07:44:48;;;;;;;0.40;0.40;;;9.50;99.90;;;;;;5122715;27;20186;-78
2024/02/18 07:47:14;;;;;;;0.30;0.20;;;9.60;99.90;;;;;;5122785;27;20191;-79
2024/02/18 07:49:40;;;;;;;4.53;4.23;;;9.70;99.90;;;;;;5107147;28;20179;-80
2024/02/18 07:52:06;;;;;;;7.23;6.70;;;9.70;99.90;;;;;;5106870;28;20545;-79
2024/02/18 07:54:31;;;;;;;0.63;0.63;;;9.80;99.90;;;;;;5118956;27;20199;-78
2024/02/18 07:56:57;;;;;;;0.30;0.30;;;9.90;99.90;;;;;;5104609;28;20537;-80
2024/02/18 07:59:23;;;;;;;0.33;0.33;;;9.90;99.90;;;;;;5103007;28;20560;-78
2024/02/18 08:01:48;;;;;;;0.30;0.30;;;9.90;99.90;;;;;;5104255;28;20168;-78
2024/02/18 08:04:15;;;;;;;0.47;0.47;;;10.00;99.90;;;;;;5120146;27;20204;-78
2024/02/18 08:06:41;;;;;;;0.85;0.85;;;10.10;99.90;;;;;;5120126;27;20487;-79
2024/02/18 08:09:07;;;;;;;0.30;0.20;;;10.10;99.90;;;;;;5103780;28;20348;-79
2024/02/18 08:11:33;;;;;;;0.30;0.20;;;10.20;99.90;;;;;;5105581;28;20447;-78
2024/02/18 08:13:59;;;;;;;0.60;0.60;;;10.30;99.90;;;;;;5121656;27;20672;-79
2024/02/18 08:16:28;;;;;;;0.73;0.73;;;10.40;99.90;;;;;;5119420;27;20437;-79
2024/02/18 08:18:57;;;;;;;0.77;0.77;;;10.50;99.90;;;;;;5102844;28;20234;-79
2024/02/18 08:21:23;;;;;;;1.08;1.08;;;11.00;99.90;;;;;;5102994;28;20164;-80
2024/02/18 08:23:50;;;;;;;1.75;1.75;;;11.60;99.90;;;;;;5118460;27;20790;-79
2024/02/18 08:26:20;;;;;;;1.25;1.25;;;12.00;99.90;;;;;;5102666;28;20162;-79
2024/02/18 08:28:46;;;;;;;1.63;1.35;;;12.30;99.90;;;;;;5118478;27;20233;-79
2024/02/18 08:31:12;;;;;;;0.63;0.63;;;12.60;99.90;;;;;;5121646;27;20278;-78
2024/02/18 08:33:37;;;;;;;2.93;1.13;;;12.90;99.90;;;;;;5105818;28;20192;-77
2024/02/18 08:36:03;;;;;;;0.30;0.30;;;13.10;99.90;;;;;;5105843;28;20180;-77
2024/02/18 08:38:29;;;;;;;0.30;0.20;;;13.10;99.90;;;;;;5121178;27;20215;-78
2024/02/18 08:40:55;;;;;;;0.30;0.20;;;13.10;99.90;;;;;;5105850;28;20687;-78
2024/02/18 08:43:20;;;;;;;0.50;0.50;;;13.30;99.90;;;;;;5121305;27;20451;-77
2024/02/18 08:45:46;;;;;;;2.20;2.10;;;13.40;99.90;;;;;;5121532;27;20339;-78
2024/02/18 08:48:13;;;;;;;0.40;0.40;;;13.40;99.90;;;;;;5105797;28;20258;-78
2024/02/18 08:50:39;;;;;;;2.20;2.10;;;13.30;99.90;;;;;;5105861;28;20250;-77
2024/02/18 08:53:05;;;;;;;8.47;8.13;;;13.20;99.90;;;;;;5105704;28;20542;-78
2024/02/18 08:55:31;;;;;;;0.40;0.40;;;13.00;99.90;;;;;;5106140;28;20956;-77
2024/02/18 08:57:56;;;;;;;0.70;0.60;;;12.90;99.90;;;;;;5104627;28;20672;-79
2024/02/18 09:00:22;;;;;;;2.60;2.00;;;12.90;99.90;;;;;;5120552;27;20187;-78
2024/02/18 09:02:48;;;;;;;0.40;0.40;;;12.80;99.90;;;;;;5104442;28;20222;-78
2024/02/18 09:05:13;;;;;;;23.30;21.70;;;12.70;99.90;;;;;;5103287;28;20183;-78
2024/02/18 09:07:39;;;;;;;1.37;1.27;;;12.70;99.90;;;;;;5101389;28;20242;-78
2024/02/18 09:10:05;;;;;;;0.80;0.80;;;12.60;99.90;;;;;;5103162;28;20388;-77
2024/02/18 09:12:31;;;;;;;3.58;3.35;;;12.60;99.90;;;;;;5094101;28;20235;-77
2024/02/18 09:14:58;;;;;;;0.37;0.20;;;12.60;99.90;;;;;;5103072;28;20701;-78
2024/02/18 09:17:24;;;;;;;0.30;0.20;;;12.70;99.90;;;;;;5120920;28;20219;-78
2024/02/18 09:19:50;;;;;;;1.33;1.33;;;12.70;99.90;;;;;;5120930;28;20412;-77
2024/02/18 09:22:15;;;;;;;0.33;0.33;;;12.70;99.90;;;;;;5105250;28;20394;-78
2024/02/18 09:24:44;;;;;;;0.67;0.67;;;12.80;99.90;;;;;;5105323;28;20857;-78
2024/02/18 09:27:10;;;;;;;0.87;0.87;;;12.90;99.90;;;;;;5104537;28;20184;-77
2024/02/18 09:29:37;;;;;;;9.23;1.47;;;12.90;99.90;;;;;;5119625;28;20459;-77
2024/02/18 09:32:02;;;;;;;0.30;0.30;;;13.00;99.90;;;;;;5120044;28;20420;-78
2024/02/18 09:34:30;;;;;;;0.30;0.30;;;13.00;99.90;;;;;;5103793;28;20444;-77
2024/02/18 09:36:56;;;;;;;0.30;0.20;;;13.00;99.90;;;;;;5117561;28;20420;-78
2024/02/18 09:39:22;;;;;;;0.67;0.67;;;13.20;99.90;;;;;;5107098;28;20823;-77
2024/02/18 09:41:48;;;;;;;0.30;0.20;;;13.30;99.90;;;;;;5107629;28;20171;-77
2024/02/18 09:44:15;;;;;;;1.63;1.30;;;13.40;99.90;;;;;;5107690;28;20287;-77
2024/02/18 09:46:42;;;;;;;1.67;1.53;;;13.40;99.90;;;;;;5123202;27;20411;-77
2024/02/18 09:49:12;;;;;;;0.30;0.20;;;13.40;99.90;;;;;;5123173;27;20474;-77
2024/02/18 09:51:39;;;;;;;0.30;0.20;;;13.30;99.90;;;;;;5107549;28;20416;-78
2024/02/18 09:54:06;;;;;;;0.30;0.20;;;13.30;99.90;;;;;;5107642;28;20824;-78
2024/02/18 09:56:33;;;;;;;0.30;0.20;;;13.20;99.90;;;;;;5109086;28;20447;-78
2024/02/18 09:58:59;;;;;;;0.30;0.20;;;13.20;99.90;;;;;;5108524;28;20832;-78
2024/02/18 10:01:25;;;;;;;0.60;0.53;;;13.10;99.90;;;;;;5124215;27;20404;-78
2024/02/18 10:03:51;;;;;;;1.53;1.43;;;13.00;99.90;;;;;;5108128;28;20988;-77
2024/02/18 10:06:17;;;;;;;0.30;0.20;;;12.90;99.90;;;;;;5109524;28;21065;-78
2024/02/18 10:08:51;;;;;;;0.57;0.57;;;12.90;99.90;;;;;;5124550;27;20484;-77
2024/02/18 10:11:21;;;;;;;2.60;2.50;;;12.80;99.90;;;;;;5124539;27;20464;-77
2024/02/18 10:13:51;;;;;;;0.30;0.20;;;12.80;99.90;;;;;;5108537;28;20724;-77
2024/02/18 10:16:17;;;;;;;0.30;0.20;;;12.70;99.90;;;;;;5109239;28;20621;-77
2024/02/18 10:18:43;;;;;;;0.40;0.40;;;12.70;99.90;;;;;;5124231;27;20483;-77
2024/02/18 10:21:14;;;;;;;2.05;1.95;;;12.70;99.90;;;;;;5124342;27;20410;-77
2024/02/18 10:23:40;;;;;;;0.50;0.47;;;12.70;99.90;;;;;;5123958;27;20453;-77
2024/02/18 10:26:09;;;;;;;0.40;0.40;;;12.70;99.90;;;;;;5108656;28;20412;-77
2024/02/18 10:28:35;;;;;;;6.23;5.40;;;12.70;99.90;;;;;;5108397;28;20451;-78
2024/02/18 10:31:04;;;;;;;1.23;1.13;;;12.70;99.90;;;;;;5108873;28;20407;-77
2024/02/18 10:33:31;;;;;;;0.93;0.93;;;12.80;99.90;;;;;;5108292;28;20471;-77
2024/02/18 10:36:03;;;;;;;2.83;2.60;;;12.90;99.90;;;;;;5124094;27;20651;-78
2024/02/18 10:38:31;;;;;;;0.30;0.30;;;13.00;99.90;;;;;;5123718;27;20487;-77
2024/02/18 10:41:07;;;;;;;0.30;0.27;;;13.20;99.90;;;;;;5124349;27;20404;-77
2024/02/18 10:43:43;;;;;;;0.30;0.20;;;13.30;99.90;;;;;;5123707;27;20467;-78
2024/02/18 10:46:10;;;;;;;0.40;0.27;;;13.50;99.90;;;;;;5124300;27;20768;-78
2024/02/18 10:48:38;;;;;;;0.30;0.20;;;13.70;99.90;;;;;;5107811;28;20450;-77
2024/02/18 10:51:06;;;;;;;0.30;0.20;;;13.80;99.90;;;;;;5123933;27;20512;-77
2024/02/18 10:53:41;;;;;;;1.17;0.80;;;13.90;99.90;;;;;;5123980;27;20458;-78
2024/02/18 10:56:22;;;;;;;0.73;0.67;;;14.00;99.90;;;;;;5123871;27;20403;-77
2024/02/18 10:59:24;;;;;;;0.40;0.30;;;14.20;99.90;;;;;;5107423;28;21047;-76
2024/02/18 11:02:00;;;;;;;0.40;0.40;;;14.40;99.90;;;;;;5106773;28;20454;-78
2024/02/18 11:04:26;;;;;;;1.50;1.50;;;14.60;99.90;;;;;;5107522;28;20439;-77
2024/02/18 11:06:53;;;;;;;11.30;10.70;;;14.70;99.90;;;;;;5123593;27;20416;-78
2024/02/18 11:09:20;;;;;;;0.30;0.20;;;14.80;99.90;;;;;;5107532;28;20520;-78
2024/02/18 11:11:48;;;;;;;0.40;0.30;;;14.80;99.90;;;;;;5107550;28;20490;-78
2024/02/18 11:14:15;;;;;;;0.30;0.20;;;14.90;99.90;;;;;;5122797;27;20664;-77
2024/02/18 11:16:42;;;;;;;0.30;0.20;;;15.00;99.90;;;;;;5107589;28;20423;-76
2024/02/18 11:19:09;;;;;;;0.30;0.20;;;15.20;99.90;;;;;;5122884;27;20826;-77
2024/02/18 11:21:36;;;;;;;0.60;0.60;;;15.30;99.90;;;;;;5107496;28;20420;-77
2024/02/18 11:24:05;;;;;;;0.30;0.20;;;15.40;99.90;;;;;;5122668;27;20447;-78
2024/02/18 11:26:31;;;;;;;0.60;0.60;;;15.40;99.90;;;;;;5107776;28;20542;-77
2024/02/18 11:29:02;;;;;;;0.30;0.20;;;15.40;99.90;;;;;;5107406;28;20849;-78
2024/02/18 11:31:30;;;;;;;0.30;0.20;;;15.50;99.90;;;;;;5123211;27;20198;-77
2024/02/18 11:33:56;;;;;;;1.63;0.93;;;15.60;99.90;;;;;;5106832;28;20968;-77
2024/02/18 11:36:26;;;;;;;0.30;0.20;;;15.60;99.90;;;;;;5122949;27;20416;-77
2024/02/18 11:38:54;;;;;;;0.40;0.37;;;15.50;99.90;;;;;;5107201;28;20483;-77
2024/02/18 11:41:27;;;;;;;0.30;0.20;;;15.50;99.90;;;;;;5122939;27;20430;-78
2024/02/18 11:43:58;;;;;;;0.57;0.57;;;15.40;99.90;;;;;;5106678;28;20548;-77
2024/02/18 11:46:25;;;;;;;4.57;2.70;;;15.50;99.90;;;;;;5107025;28;20407;-77
2024/02/18 11:48:51;;;;;;;0.63;0.63;;;15.50;99.90;;;;;;5106397;28;20502;-77
2024/02/18 11:51:18;;;;;;;0.30;0.20;;;15.60;99.90;;;;;;5106878;28;20818;-77
2024/02/18 11:53:44;;;;;;;0.40;0.27;;;15.60;99.90;;;;;;5106543;28;20500;-78
2024/02/18 11:56:14;;;;;;;0.80;0.80;;;15.70;99.90;;;;;;5105210;28;20402;-78
2024/02/18 11:58:40;;;;;;;0.30;0.20;;;15.80;99.90;;;;;;5104783;28;20871;-78
2024/02/18 12:01:06;;;;;;;0.30;0.20;;;15.90;99.90;;;;;;5104180;28;20427;-77
2024/02/18 12:03:32;;;;;;;0.53;0.53;;;15.90;99.90;;;;;;5103197;28;20959;-78
2024/02/18 12:05:59;;;;;;;0.33;0.30;;;16.00;99.90;;;;;;5105000;28;20415;-77
2024/02/18 12:08:29;;;;;;;0.30;0.30;;;16.00;99.90;;;;;;5120349;27;20824;-78
2024/02/18 12:10:55;;;;;;;0.30;0.20;;;16.10;99.90;;;;;;5105939;28;20479;-78
2024/02/18 12:13:22;;;;;;;4.23;0.97;;;16.20;99.90;;;;;;5122292;27;20443;-77
2024/02/18 12:15:49;;;;;;;0.30;0.20;;;16.30;99.90;;;;;;5122003;27;20908;-77
2024/02/18 12:18:16;;;;;;;0.37;0.30;;;16.40;99.90;;;;;;5106398;28;20508;-77
2024/02/18 12:20:47;;;;;;;0.40;0.20;;;16.50;99.90;;;;;;5122135;27;20416;-78
2024/02/18 12:23:17;;;;;;;0.30;0.20;;;16.60;99.90;;;;;;5121898;27;20463;-78
2024/02/18 12:25:43;;;;;;;0.40;0.40;;;16.60;99.90;;;;;;5106276;28;20395;-78
2024/02/18 12:28:09;;;;;;;1.07;0.90;;;16.70;99.90;;;;;;5106189;28;20472;-77
2024/02/18 12:30:36;;;;;;;0.30;0.30;;;16.80;99.90;;;;;;5106537;28;20401;-78
2024/02/18 12:33:03;;;;;;;0.30;0.20;;;16.80;99.90;;;;;;5106163;28;20436;-78
2024/02/18 12:35:29;;;;;;;2.10;2.00;;;16.80;99.90;;;;;;5106129;28;20408;-77
2024/02/18 12:37:55;;;;;;;0.37;0.37;;;16.80;99.90;;;;;;5105658;28;20766;-78
2024/02/18 12:40:21;;;;;;;0.90;0.90;;;16.80;99.90;;;;;;5122049;27;20408;-77
2024/02/18 12:42:47;;;;;;;0.30;0.20;;;16.70;99.90;;;;;;5105741;28;20468;-77
2024/02/18 12:45:23;;;;;;;0.60;0.60;;;16.70;99.90;;;;;;5106231;28;20924;-78
2024/02/18 12:47:50;;;;;;;0.30;0.20;;;16.70;99.90;;;;;;5105885;28;20527;-77
2024/02/18 12:50:16;;;;;;;0.80;0.80;;;16.60;99.90;;;;;;5121850;27;20408;-78